Time;durP1;ratioP1;P1;durP2;ratioP2;P2;SDS_P1;SDS_P2;PMS_P1;PMS_P2;Temp;Humidity;BMP_temperature;BMP_pressure;BME280_temperature;BME280_humidity;BME280_pressure;Samples;Min_cycle;Max_cycle;Signal;HPM_P1;HPM_P2
2024/04/20 00:00:27;;;;;;;1.27;0.90;;;;;;;5.33;100.00;98763.53;5277253;27;20001;-73
2024/04/20 00:02:54;;;;;;;0.80;0.80;;;;;;;5.44;100.00;98760.72;5198782;27;20097;-73
2024/04/20 00:05:21;;;;;;;0.70;0.70;;;;;;;5.52;100.00;98766.09;5226652;27;19998;-73
2024/04/20 00:07:47;;;;;;;0.83;0.83;;;;;;;5.50;100.00;98768.03;5225918;27;20015;-73
2024/04/20 00:10:14;;;;;;;0.87;0.87;;;;;;;5.53;100.00;98767.72;5199456;27;20037;-73
2024/04/20 00:12:40;;;;;;;0.90;0.90;;;;;;;5.53;100.00;98763.31;5226945;27;20468;-72
2024/04/20 00:15:07;;;;;;;0.90;0.90;;;;;;;5.49;100.00;98775.09;5198105;27;20005;-73
2024/04/20 00:17:38;;;;;;;0.87;0.87;;;;;;;5.52;100.00;98764.25;5195996;27;20010;-72
2024/04/20 00:20:06;;;;;;;0.90;0.90;;;;;;;5.42;100.00;98768.78;5187065;27;19999;-73
2024/04/20 00:22:32;;;;;;;1.30;1.20;;;;;;;5.41;100.00;98761.00;5159754;27;20030;-73
2024/04/20 00:24:59;;;;;;;1.00;0.90;;;;;;;5.43;100.00;98762.50;5214215;27;20373;-73
2024/04/20 00:27:26;;;;;;;0.80;0.80;;;;;;;5.37;100.00;98793.84;5148386;27;20057;-73
2024/04/20 00:29:53;;;;;;;1.43;1.00;;;;;;;5.28;100.00;98805.25;5176657;27;20010;-72
2024/04/20 00:32:19;;;;;;;1.00;1.00;;;;;;;5.29;100.00;98794.59;5186663;27;20010;-73
2024/04/20 00:34:45;;;;;;;1.20;1.10;;;;;;;5.30;100.00;98796.28;5235993;27;20000;-73
2024/04/20 00:37:13;;;;;;;1.10;1.00;;;;;;;5.36;100.00;98808.84;5208804;27;20004;-73
2024/04/20 00:39:39;;;;;;;1.20;1.10;;;;;;;5.45;100.00;98813.25;5236284;27;20000;-73
2024/04/20 00:42:08;;;;;;;1.10;1.10;;;;;;;5.43;100.00;98809.91;5207796;27;20092;-73
2024/04/20 00:44:36;;;;;;;0.93;0.93;;;;;;;5.38;100.00;98816.59;5207585;27;20007;-72
2024/04/20 00:47:05;;;;;;;1.00;0.97;;;;;;;5.51;100.00;98828.44;5236047;27;20122;-73
2024/04/20 00:49:31;;;;;;;1.40;1.30;;;;;;;5.36;100.00;98824.66;5236796;27;20372;-73
2024/04/20 00:51:58;;;;;;;3.70;1.20;;;;;;;5.34;100.00;98821.31;5186264;27;20006;-73
2024/04/20 00:54:26;;;;;;;1.20;1.10;;;;;;;5.35;100.00;98822.97;5241290;27;20003;-72
2024/04/20 00:56:54;;;;;;;1.30;1.20;;;;;;;5.19;100.00;98823.59;5241084;27;20451;-73
2024/04/20 00:59:22;;;;;;;1.50;1.40;;;;;;;5.28;100.00;98829.78;5264680;27;19999;-72
2024/04/20 01:01:49;;;;;;;1.00;0.90;;;;;;;5.27;100.00;98824.69;5241129;27;20019;-73
2024/04/20 01:04:15;;;;;;;1.00;1.00;;;;;;;5.20;100.00;98827.03;5160970;27;20003;-73
2024/04/20 01:06:41;;;;;;;1.60;1.37;;;;;;;5.06;100.00;98819.59;5183633;27;20003;-72
2024/04/20 01:09:09;;;;;;;5.33;1.57;;;;;;;5.08;100.00;98825.56;5154034;27;20051;-72
2024/04/20 01:11:35;;;;;;;2.50;1.30;;;;;;;5.05;100.00;98857.44;5175216;27;20000;-72
2024/04/20 01:14:02;;;;;;;4.80;1.30;;;;;;;5.00;100.00;98846.50;5121481;27;20016;-74
2024/04/20 01:16:29;;;;;;;1.50;1.40;;;;;;;5.10;100.00;98865.75;5096809;27;20004;-73
2024/04/20 01:18:55;;;;;;;1.17;1.07;;;;;;;5.22;100.00;98849.63;5176777;27;20008;-73
2024/04/20 01:21:23;;;;;;;1.97;1.40;;;;;;;5.33;100.00;98864.44;5095317;27;20324;-73
2024/04/20 01:23:56;;;;;;;1.30;1.20;;;;;;;5.35;100.00;98867.72;5147727;27;20028;-73
2024/04/20 01:26:23;;;;;;;1.30;1.20;;;;;;;5.33;100.00;98871.47;5121240;27;20000;-73
2024/04/20 01:28:49;;;;;;;1.30;1.20;;;;;;;5.29;100.00;98883.28;5037948;27;20001;-73
2024/04/20 01:31:15;;;;;;;1.80;1.27;;;;;;;5.21;100.00;98884.00;5170667;27;20464;-72
2024/04/20 01:33:40;;;;;;;1.20;1.10;;;;;;;5.26;100.00;98875.69;5142519;27;20008;-72
2024/04/20 01:36:06;;;;;;;1.47;1.37;;;;;;;5.15;100.00;98890.66;5142657;27;20001;-73
2024/04/20 01:38:32;;;;;;;1.60;1.20;;;;;;;5.18;100.00;98889.56;5169912;27;20032;-72
2024/04/20 01:40:58;;;;;;;1.30;1.20;;;;;;;5.17;100.00;98898.41;5180304;27;20071;-73
2024/04/20 01:43:24;;;;;;;1.23;1.13;;;;;;;5.12;100.00;98908.50;5235944;27;20430;-74
2024/04/20 01:45:50;;;;;;;1.43;1.33;;;;;;;5.05;100.00;98915.31;5216946;27;20014;-72
2024/04/20 01:48:16;;;;;;;1.77;1.60;;;;;;;5.00;100.00;98915.75;5244496;27;20011;-73
2024/04/20 01:50:44;;;;;;;1.60;1.50;;;;;;;5.00;100.00;98921.00;5217435;27;20335;-72
2024/04/20 01:53:11;;;;;;;1.80;1.40;;;;;;;4.95;100.00;98911.91;5213532;27;19999;-72
2024/04/20 01:55:36;;;;;;;1.60;1.50;;;;;;;4.90;100.00;98916.75;5184958;27;20027;-72
2024/04/20 01:58:04;;;;;;;1.60;1.50;;;;;;;4.84;100.00;98933.91;5180190;27;20024;-72
2024/04/20 02:00:30;;;;;;;1.70;1.50;;;;;;;4.77;100.00;98926.69;5218838;27;20008;-72
2024/04/20 02:02:55;;;;;;;1.50;1.33;;;;;;;4.76;100.00;98935.56;5247101;27;20002;-72
2024/04/20 02:05:23;;;;;;;2.80;1.60;;;;;;;4.71;100.00;98943.03;5199270;27;19998;-72
2024/04/20 02:07:52;;;;;;;2.40;1.30;;;;;;;4.72;100.00;98940.28;5220337;27;20062;-73
2024/04/20 02:10:20;;;;;;;1.60;1.50;;;;;;;4.59;100.00;98934.47;5168283;27;20010;-71
2024/04/20 02:12:46;;;;;;;1.70;1.60;;;;;;;4.60;100.00;98943.16;5194083;27;19999;-72
2024/04/20 02:15:14;;;;;;;2.47;1.70;;;;;;;4.56;100.00;98941.78;5193978;27;20465;-72
2024/04/20 02:17:40;;;;;;;1.93;1.70;;;;;;;4.54;100.00;98943.72;5223418;27;20499;-72
2024/04/20 02:20:06;;;;;;;1.97;1.60;;;;;;;4.54;100.00;98946.34;5226543;27;20007;-72
2024/04/20 02:22:34;;;;;;;1.60;1.50;;;;;;;4.53;100.00;98947.31;5225029;27;20009;-74
2024/04/20 02:25:03;;;;;;;2.20;1.63;;;;;;;4.49;100.00;98961.72;5242280;27;20012;-72
2024/04/20 02:27:29;;;;;;;5.57;2.70;;;;;;;4.48;100.00;98958.25;5191190;27;20098;-72
2024/04/20 02:29:55;;;;;;;2.43;2.23;;;;;;;4.48;100.00;98968.78;5246837;27;19998;-72
2024/04/20 02:32:22;;;;;;;2.83;2.03;;;;;;;4.50;100.00;98968.63;5252206;27;20008;-74
2024/04/20 02:34:48;;;;;;;2.73;2.07;;;;;;;4.47;100.00;98977.63;5227864;27;20016;-72
2024/04/20 02:37:14;;;;;;;2.90;2.10;;;;;;;4.49;100.00;98985.38;5226140;27;20012;-72
2024/04/20 02:39:40;;;;;;;2.27;1.83;;;;;;;4.50;100.00;98989.66;5224037;27;19997;-72
2024/04/20 02:42:07;;;;;;;2.30;1.70;;;;;;;4.56;100.00;98997.00;5196925;27;20392;-73
2024/04/20 02:44:34;;;;;;;2.07;1.80;;;;;;;4.52;100.00;98996.44;5252285;27;20041;-72
2024/04/20 02:47:00;;;;;;;3.37;1.80;;;;;;;4.55;100.00;99000.63;5224285;27;20010;-72
2024/04/20 02:49:26;;;;;;;1.83;1.67;;;;;;;4.54;100.00;99005.03;5224281;27;20052;-72
2024/04/20 02:51:52;;;;;;;2.23;1.53;;;;;;;4.51;100.00;99010.56;5251320;27;20006;-73
2024/04/20 02:54:19;;;;;;;1.80;1.67;;;;;;;4.58;100.00;99010.88;5223896;27;19998;-73
2024/04/20 02:56:47;;;;;;;2.07;1.73;;;;;;;4.62;100.00;99020.13;5251047;27;19998;-72
2024/04/20 02:59:14;;;;;;;3.30;1.70;;;;;;;4.55;100.00;99024.28;5223305;27;20506;-73
2024/04/20 03:01:46;;;;;;;1.80;1.57;;;;;;;4.60;100.00;99033.41;5158658;27;19999;-72
2024/04/20 03:04:12;;;;;;;1.73;1.63;;;;;;;4.48;100.00;99049.44;5184915;27;20003;-72
2024/04/20 03:06:38;;;;;;;1.70;1.60;;;;;;;4.44;100.00;99059.41;5184489;27;20017;-72
2024/04/20 03:09:04;;;;;;;2.17;1.73;;;;;;;4.46;100.00;99054.00;5216843;27;20013;-72
2024/04/20 03:11:30;;;;;;;2.37;1.60;;;;;;;4.41;100.00;99059.63;5233629;27;20013;-73
2024/04/20 03:13:56;;;;;;;4.07;1.80;;;;;;;4.38;100.00;99082.75;5195804;27;19998;-73
2024/04/20 03:16:33;;;;;;;2.27;1.70;;;;;;;4.45;100.00;99079.47;5196069;27;19997;-72
2024/04/20 03:19:02;;;;;;;1.70;1.60;;;;;;;4.46;100.00;99080.31;5223459;27;20321;-72
2024/04/20 03:21:28;;;;;;;2.90;1.80;;;;;;;4.37;100.00;99081.91;5278695;27;20376;-72
2024/04/20 03:23:56;;;;;;;1.70;1.60;;;;;;;4.44;100.00;99087.47;5222979;27;20026;-72
2024/04/20 03:26:21;;;;;;;2.20;1.57;;;;;;;4.44;100.00;99076.97;5195578;27;20001;-72
2024/04/20 03:28:48;;;;;;;1.60;1.50;;;;;;;4.49;100.00;99080.03;5195417;27;20001;-72
2024/04/20 03:31:14;;;;;;;3.47;1.93;;;;;;;4.50;100.00;99073.81;5278379;27;20124;-72
2024/04/20 03:33:40;;;;;;;2.70;2.07;;;;;;;4.53;100.00;99086.69;5278463;27;20013;-72
2024/04/20 03:36:06;;;;;;;2.07;1.87;;;;;;;4.61;100.00;99081.59;5195240;27;20416;-72
2024/04/20 03:38:34;;;;;;;2.07;1.67;;;;;;;4.76;100.00;99075.81;5211800;26;20024;-72
2024/04/20 03:41:01;;;;;;;1.93;1.70;;;;;;;4.72;100.00;99094.63;5290156;26;19996;-73
2024/04/20 03:43:28;;;;;;;2.83;1.97;;;;;;;4.79;100.00;99114.16;5318334;26;19996;-73
2024/04/20 03:45:54;;;;;;;4.80;1.90;;;;;;;4.88;100.00;99093.16;5293201;26;20000;-72
2024/04/20 03:48:24;;;;;;;2.60;2.10;;;;;;;4.94;100.00;99091.75;5320358;26;20011;-72
2024/04/20 03:50:52;;;;;;;2.40;1.90;;;;;;;5.09;100.00;99095.66;5294618;26;20035;-72
2024/04/20 03:53:20;;;;;;;2.47;2.17;;;;;;;5.19;100.00;99101.78;5348836;26;20360;-72
2024/04/20 03:55:46;;;;;;;2.93;2.17;;;;;;;5.34;100.00;99107.44;5321006;26;20008;-72
2024/04/20 03:58:14;;;;;;;2.87;2.10;;;;;;;5.49;100.00;99109.53;5377870;26;20020;-72
2024/04/20 04:00:43;;;;;;;3.40;2.30;;;;;;;5.56;100.00;99108.03;5348670;26;20411;-72
2024/04/20 04:03:14;;;;;;;2.30;1.90;;;;;;;5.72;100.00;99107.47;5348200;26;20004;-72
2024/04/20 04:05:41;;;;;;;3.37;2.70;;;;;;;5.92;100.00;99123.13;5319963;26;20380;-71
2024/04/20 04:08:10;;;;;;;2.50;2.30;;;;;;;5.94;100.00;99134.34;5348827;26;20072;-73
2024/04/20 04:10:36;;;;;;;2.63;2.20;;;;;;;5.97;100.00;99141.97;5320614;26;20004;-72
2024/04/20 04:13:04;;;;;;;3.90;2.30;;;;;;;6.03;100.00;99140.56;5319961;26;20004;-72
2024/04/20 04:15:30;;;;;;;2.28;2.08;;;;;;;6.18;100.00;99142.63;5320536;26;20020;-72
2024/04/20 04:17:56;;;;;;;2.83;2.10;;;;;;;6.22;100.00;99141.38;5322183;26;20004;-72
2024/04/20 04:20:22;;;;;;;2.95;1.83;;;;;;;6.53;100.00;99145.44;5295810;26;20366;-72
2024/04/20 04:22:50;;;;;;;1.95;1.80;;;;;;;6.85;100.00;99159.06;5352227;26;20431;-72
2024/04/20 04:25:16;;;;;;;2.70;1.80;;;;;;;7.00;100.00;99161.19;5295678;26;20010;-72
2024/04/20 04:27:45;;;;;;;2.95;1.90;;;;;;;7.26;100.00;99167.47;5352815;26;20004;-72
2024/04/20 04:30:11;;;;;;;4.60;1.77;;;;;;;7.33;100.00;99166.72;5267708;26;20004;-72
2024/04/20 04:32:37;;;;;;;2.38;1.70;;;;;;;7.35;100.00;99174.50;5325418;26;20004;-72
2024/04/20 04:35:04;;;;;;;1.80;1.70;;;;;;;7.20;100.00;99170.66;5296771;26;20032;-72
2024/04/20 04:37:31;;;;;;;2.10;1.60;;;;;;;7.28;100.00;99170.75;5324051;26;20051;-72
2024/04/20 04:39:57;;;;;;;2.03;1.38;;;;;;;7.34;100.00;99183.38;5353197;26;20012;-72
2024/04/20 04:42:23;;;;;;;1.58;1.48;;;;;;;7.34;100.00;99178.94;5315807;26;20009;-72
2024/04/20 04:44:50;;;;;;;1.90;1.55;;;;;;;7.43;100.00;99171.91;5287720;26;20007;-72
2024/04/20 04:47:16;;;;;;;1.85;1.67;;;;;;;7.33;100.00;99176.44;5259263;26;19997;-72
2024/04/20 04:49:42;;;;;;;2.97;1.70;;;;;;;7.33;100.00;99182.56;5260395;26;19997;-72
2024/04/20 04:52:09;;;;;;;1.92;1.65;;;;;;;7.29;100.00;99188.28;5259641;26;20016;-72
2024/04/20 04:54:35;;;;;;;1.73;1.63;;;;;;;7.34;100.00;99186.00;5287468;26;20011;-72
2024/04/20 04:57:02;;;;;;;2.10;1.90;;;;;;;7.46;100.00;99185.66;5186624;27;19999;-72
2024/04/20 04:59:29;;;;;;;1.70;1.60;;;;;;;7.60;100.00;99189.59;5160733;27;20003;-71
2024/04/20 05:01:56;;;;;;;1.60;1.50;;;;;;;7.62;100.00;99195.56;5187336;27;20010;-71
2024/04/20 05:04:25;;;;;;;2.17;1.70;;;;;;;7.66;100.00;99207.50;5153917;27;20003;-73
2024/04/20 05:06:52;;;;;;;3.22;2.47;;;;;;;7.70;100.00;99204.44;5153295;27;20011;-73
2024/04/20 05:09:19;;;;;;;1.98;1.70;;;;;;;7.71;100.00;99210.53;5154467;27;20083;-73
2024/04/20 05:11:45;;;;;;;1.80;1.58;;;;;;;7.61;100.00;99209.78;5155244;27;20003;-74
2024/04/20 05:14:13;;;;;;;2.55;1.80;;;;;;;7.68;100.00;99224.88;5104605;27;20016;-73
2024/04/20 05:16:43;;;;;;;5.93;2.03;;;;;;;7.64;100.00;99222.69;5087569;28;20159;-74
2024/04/20 05:19:11;;;;;;;1.65;1.40;;;;;;;7.76;100.00;99222.31;5125369;27;20044;-80
2024/04/20 05:21:37;;;;;;;2.38;1.83;;;;;;;7.66;100.00;99220.69;5064219;27;20005;-75
2024/04/20 05:24:03;;;;;;;2.63;1.80;;;;;;;7.75;100.00;99230.41;5053373;28;20002;-73
2024/04/20 05:26:28;;;;;;;3.28;1.42;;;;;;;7.85;100.00;99224.06;5027755;28;20110;-75
2024/04/20 05:28:54;;;;;;;3.95;1.80;;;;;;;8.01;100.00;99228.66;5027290;28;20043;-80
2024/04/20 05:31:20;;;;;;;5.65;2.13;;;;;;;8.26;100.00;99238.47;5027814;28;20006;-73
2024/04/20 05:33:46;;;;;;;1.73;1.60;;;;;;;8.31;100.00;99238.88;5039654;27;20483;-74
2024/04/20 05:36:15;;;;;;;2.13;1.90;;;;;;;8.51;100.00;99243.00;5142574;27;20067;-75
2024/04/20 05:38:42;;;;;;;3.60;1.80;;;;;;;8.78;100.00;99249.97;5142627;27;20009;-77
2024/04/20 05:41:17;;;;;;;3.42;1.55;;;;;;;8.83;100.00;99245.84;5151561;27;20025;-74
2024/04/20 05:43:44;;;;;;;2.60;1.92;;;;;;;8.91;100.00;99251.19;5147553;27;20043;-74
2024/04/20 05:46:10;;;;;;;2.78;2.05;;;;;;;9.13;100.00;99261.25;5148064;27;20091;-74
2024/04/20 05:48:40;;;;;;;2.53;2.00;;;;;;;9.22;100.00;99257.66;5228594;27;19999;-74
2024/04/20 05:51:06;;;;;;;1.52;1.42;;;;;;;9.18;100.00;99266.91;5153854;27;20011;-75
2024/04/20 05:53:36;;;;;;;2.72;2.30;;;;;;;9.28;100.00;99274.72;5243052;27;20009;-75
2024/04/20 05:56:03;;;;;;;2.03;1.80;;;;;;;9.33;100.00;99283.84;5195897;27;20060;-75
2024/04/20 05:58:31;;;;;;;4.97;1.70;;;;;;;9.38;100.00;99281.56;5165696;27;19998;-74
2024/04/20 06:00:57;;;;;;;6.10;1.67;;;;;;;9.36;100.00;99277.44;5191175;27;19998;-76
2024/04/20 06:03:28;;;;;;;2.40;1.95;;;;;;;9.29;100.00;99287.81;5219074;27;20006;-73
2024/04/20 06:05:55;;;;;;;2.45;1.90;;;;;;;9.10;100.00;99290.69;5219137;27;20014;-74
2024/04/20 06:08:22;;;;;;;5.18;2.38;;;;;;;9.09;100.00;99297.00;5159275;27;20067;-74
2024/04/20 06:10:55;;;;;;;4.93;1.95;;;;;;;9.28;100.00;99296.78;5186814;27;20461;-75
2024/04/20 06:13:30;;;;;;;2.38;1.90;;;;;;;9.11;100.00;99318.88;5175227;27;20001;-75
2024/04/20 06:16:00;;;;;;;1.80;1.70;;;;;;;9.23;100.00;99292.91;5128973;27;20006;-75
2024/04/20 06:18:41;;;;;;;2.13;1.80;;;;;;;9.29;100.00;99297.56;5078780;28;20013;-75
2024/04/20 06:21:10;;;;;;;2.30;2.00;;;;;;;9.38;100.00;99299.31;5117369;27;20461;-75
2024/04/20 06:23:37;;;;;;;6.70;2.13;;;;;;;9.54;100.00;99305.50;5141507;27;20006;-76
2024/04/20 06:26:09;;;;;;;3.55;2.00;;;;;;;9.82;100.00;99309.59;5057225;28;20318;-75
2024/04/20 06:28:39;;;;;;;3.40;2.08;;;;;;;9.94;100.00;99312.75;5110693;27;20345;-75
2024/04/20 06:31:05;;;;;;;3.63;2.22;;;;;;;10.01;100.00;99313.75;5136499;27;20006;-77
2024/04/20 06:33:31;;;;;;;2.33;2.10;;;;;;;10.11;100.00;99315.34;5127581;27;20016;-73
2024/04/20 06:35:58;;;;;;;3.00;2.10;;;;;;;10.29;100.00;99328.44;5162479;27;20006;-75
2024/04/20 06:38:28;;;;;;;2.22;2.03;;;;;;;10.44;100.00;99341.94;5108509;27;20158;-74
2024/04/20 06:40:59;;;;;;;;;;;;;;;10.38;100.00;99321.34;5228763;27;20024;-74
2024/04/20 06:43:57;;;;;;;4.82;2.03;;;;;;;10.17;100.00;99317.34;5212047;27;19929;-77
2024/04/20 06:46:28;;;;;;;3.13;2.20;;;;;;;9.85;100.00;99334.94;5201118;27;20015;-73
2024/04/20 06:48:55;;;;;;;4.60;2.28;;;;;;;9.59;100.00;99336.84;5178142;27;20518;-76
2024/04/20 06:51:22;;;;;;;2.70;2.13;;;;;;;9.51;100.00;99342.94;5211606;27;20017;-77
2024/04/20 06:53:48;;;;;;;2.45;2.25;;;;;;;9.28;100.00;99333.88;5149043;27;20019;-76
2024/04/20 06:56:16;;;;;;;3.42;2.22;;;;;;;9.49;100.00;99329.00;5208785;27;20004;-72
2024/04/20 06:58:42;;;;;;;3.25;1.90;;;;;;;9.89;100.00;99328.31;5243099;27;20020;-72
2024/04/20 07:01:11;;;;;;;2.92;2.10;;;;;;;10.36;100.00;99328.63;5317758;26;20000;-70
2024/04/20 07:03:40;;;;;;;;;;;;;;;10.68;100.00;99349.91;5345534;26;20005;-70
2024/04/20 07:06:06;;;;;;;2.95;2.00;;;;;;;10.84;100.00;99352.56;5318853;26;19966;-70
2024/04/20 07:08:32;;;;;;;3.65;2.03;;;;;;;11.26;100.00;99346.03;5286793;26;20410;-75
2024/04/20 07:10:59;;;;;;;2.33;1.52;;;;;;;11.44;100.00;99343.97;5261239;26;20078;-72
2024/04/20 07:13:30;;;;;;;1.88;1.63;;;;;;;11.62;100.00;99341.13;5279637;26;20012;-72
2024/04/20 07:15:56;;;;;;;1.45;1.27;;;;;;;11.75;100.00;99344.06;5291136;26;20004;-72
2024/04/20 07:18:21;;;;;;;2.08;1.50;;;;;;;11.85;100.00;99368.66;5314275;26;20021;-72
2024/04/20 07:20:47;;;;;;;2.15;1.45;;;;;;;11.65;100.00;99370.06;5303459;26;20075;-73
2024/04/20 07:23:13;;;;;;;1.73;1.38;;;;;;;11.55;100.00;99375.53;5336025;26;20020;-73
2024/04/20 07:25:41;;;;;;;1.67;0.90;;;;;;;11.86;100.00;99344.53;5274232;26;20013;-73
2024/04/20 07:28:07;;;;;;;1.70;1.02;;;;;;;11.93;100.00;99351.84;5306301;26;20000;-73
2024/04/20 07:30:32;;;;;;;5.90;1.48;;;;;;;12.73;100.00;99373.47;5320552;26;20012;-73
2024/04/20 07:32:58;;;;;;;2.75;1.50;;;;;;;14.00;100.00;99355.53;5314446;26;20420;-76
2024/04/20 07:35:24;;;;;;;2.55;2.42;;;;;;;15.62;100.00;99361.63;5399757;26;20004;-78
2024/04/20 07:37:50;;;;;;;3.10;2.90;;;;;;;17.72;90.17;99361.09;5368143;26;20000;-79
2024/04/20 07:40:16;;;;;;;4.35;3.10;;;;;;;19.07;68.54;99346.34;5311234;26;20005;-78
2024/04/20 07:42:42;;;;;;;0.80;0.80;;;;;;;21.22;52.72;99365.38;5369051;26;20008;-80
2024/04/20 07:45:08;;;;;;;1.65;1.42;;;;;;;20.28;50.15;99373.34;5361180;26;20004;-71
2024/04/20 07:47:33;;;;;;;3.20;1.85;;;;;;;19.38;50.12;99379.47;5304862;26;20086;-73
2024/04/20 07:49:59;;;;;;;1.20;1.10;;;;;;;19.87;48.48;99379.41;5363280;26;20318;-73
2024/04/20 07:52:25;;;;;;;2.60;0.90;;;;;;;18.48;50.89;99387.13;5307969;26;20004;-74
2024/04/20 07:54:51;;;;;;;4.15;3.75;;;;;;;18.16;55.91;99383.47;5350338;26;20005;-72
2024/04/20 07:57:17;;;;;;;4.50;4.13;;;;;;;19.07;52.84;99376.78;5396158;26;20007;-78
2024/04/20 07:59:45;;;;;;;1.38;0.80;;;;;;;17.83;48.92;99381.94;5367197;26;20008;-76
2024/04/20 08:02:11;;;;;;;1.23;1.02;;;;;;;16.36;57.60;99392.91;5366936;26;20442;-80
2024/04/20 08:04:37;;;;;;;2.60;1.10;;;;;;;16.20;59.79;99387.94;5294076;26;20036;-77
2024/04/20 08:07:03;;;;;;;3.50;1.42;;;;;;;15.92;65.87;99411.28;5395078;26;20015;-79
2024/04/20 08:09:30;;;;;;;3.10;1.15;;;;;;;15.01;72.95;99416.72;5302973;26;20014;-78
2024/04/20 08:11:56;;;;;;;2.05;1.33;;;;;;;14.35;81.97;99419.69;5290100;26;20052;-78
2024/04/20 08:14:22;;;;;;;4.72;1.25;;;;;;;13.93;87.86;99434.72;5328462;26;20013;-81
2024/04/20 08:16:48;;;;;;;2.65;1.20;;;;;;;14.18;90.13;99399.53;5268997;27;20006;-81
2024/04/20 08:19:13;;;;;;;5.03;1.30;;;;;;;13.81;93.86;99430.88;5273423;26;20661;-80
2024/04/20 08:21:39;;;;;;;3.33;1.33;;;;;;;13.28;100.00;99424.69;5299348;26;20002;-70
2024/04/20 08:24:05;;;;;;;1.85;1.17;;;;;;;12.94;100.00;99436.78;5273360;26;20005;-81
2024/04/20 08:26:31;;;;;;;3.70;3.25;;;;;;;13.46;100.00;99443.03;5327687;26;20002;-80
2024/04/20 08:28:57;;;;;;;1.90;1.50;;;;;;;15.12;94.10;99431.44;5287631;26;20435;-81
2024/04/20 08:31:24;;;;;;;1.85;1.20;;;;;;;15.42;80.36;99443.69;5228506;26;20051;-81
2024/04/20 08:33:49;;;;;;;3.42;1.10;;;;;;;14.72;81.32;99472.97;5214974;26;20009;-76
2024/04/20 08:36:15;;;;;;;1.38;1.05;;;;;;;14.28;86.08;99444.69;5267961;26;20001;-79
2024/04/20 08:38:41;;;;;;;4.30;1.48;;;;;;;14.13;92.12;99409.13;5240826;26;20005;-81
2024/04/20 08:41:15;;;;;;;1.73;1.45;;;;;;;14.11;88.46;99436.00;5226514;27;20006;-80
2024/04/20 08:43:43;;;;;;;2.65;1.25;;;;;;;13.94;89.04;99439.88;5281800;26;20001;-80
2024/04/20 08:46:13;;;;;;;6.07;3.22;;;;;;;14.15;90.95;99423.94;5259765;26;20080;-77
2024/04/20 08:48:41;;;;;;;1.38;1.20;;;;;;;14.54;82.70;99455.69;5323279;26;20000;-81
2024/04/20 08:51:09;;;;;;;0.93;0.82;;;;;;;14.46;81.30;99448.63;5323692;26;20019;-80
2024/04/20 08:53:36;;;;;;;1.52;1.42;;;;;;;15.00;80.50;99449.00;5381221;26;20020;-81
2024/04/20 08:56:04;;;;;;;1.88;0.90;;;;;;;14.88;82.63;99439.84;5323393;26;20044;-81
2024/04/20 08:58:30;;;;;;;0.93;0.88;;;;;;;15.43;81.56;99452.50;5299837;26;20025;-82
2024/04/20 09:01:00;;;;;;;3.15;1.30;;;;;;;15.17;78.06;99459.28;5322646;26;20004;-81
2024/04/20 09:03:30;;;;;;;1.33;0.90;;;;;;;14.97;77.97;99449.38;5324679;26;20015;-80
2024/04/20 09:05:57;;;;;;;1.52;0.98;;;;;;;15.13;75.91;99473.19;5351263;26;20004;-79
2024/04/20 09:08:24;;;;;;;1.10;0.80;;;;;;;15.22;78.26;99472.88;5328489;26;20080;-80
2024/04/20 09:10:50;;;;;;;2.42;0.98;;;;;;;14.65;79.10;99465.91;5318659;26;20059;-80
2024/04/20 09:13:17;;;;;;;1.08;0.75;;;;;;;15.12;82.90;99472.38;5337774;26;20016;-80
2024/04/20 09:15:46;;;;;;;4.72;4.32;;;;;;;16.21;77.76;99474.47;5309205;26;20483;-76
2024/04/20 09:18:13;;;;;;;2.42;1.10;;;;;;;18.91;58.86;99485.00;5245523;26;20017;-80
2024/04/20 09:20:39;;;;;;;0.73;0.70;;;;;;;20.49;49.67;99469.19;5283932;26;20451;-81
2024/04/20 09:23:06;;;;;;;0.85;0.80;;;;;;;20.20;45.76;99470.75;5306543;26;20016;-81
2024/04/20 09:25:33;;;;;;;4.45;4.10;;;;;;;20.58;44.30;99489.41;5273458;26;20001;-79
2024/04/20 09:28:00;;;;;;;4.10;3.80;;;;;;;20.41;42.71;99494.59;5285374;26;20016;-78
2024/04/20 09:30:26;;;;;;;4.10;3.90;;;;;;;22.88;39.61;99497.13;5268314;26;20002;-75
2024/04/20 09:32:52;;;;;;;4.53;4.20;;;;;;;24.38;34.09;99491.63;5294411;26;20002;-81
2024/04/20 09:35:19;;;;;;;4.00;0.80;;;;;;;24.13;31.53;99493.13;5292856;26;20479;-81
2024/04/20 09:37:45;;;;;;;1.85;0.90;;;;;;;22.62;33.48;99494.94;5328234;26;20480;-73
2024/04/20 09:40:11;;;;;;;1.05;0.90;;;;;;;20.97;34.69;99489.75;5323402;26;20005;-70
2024/04/20 09:42:41;;;;;;;0.80;0.80;;;;;;;19.44;37.71;99504.34;5326337;26;20005;-75
2024/04/20 09:45:08;;;;;;;5.82;5.53;;;;;;;19.42;39.33;99514.53;5333766;26;20030;-80
2024/04/20 09:47:38;;;;;;;2.15;1.17;;;;;;;19.42;39.17;99512.66;5327560;26;20005;-80
2024/04/20 09:50:11;;;;;;;0.70;0.70;;;;;;;17.88;42.67;99514.59;5303886;26;20033;-80
2024/04/20 09:52:48;;;;;;;1.10;0.80;;;;;;;17.47;47.67;99510.44;5274152;26;20009;-81
2024/04/20 09:55:29;;;;;;;0.70;0.70;;;;;;;17.30;51.68;99503.81;5328801;26;20011;-81
2024/04/20 09:58:02;;;;;;;0.95;0.90;;;;;;;16.78;54.23;99512.53;5367310;26;20018;-80
2024/04/20 10:00:31;;;;;;;5.15;4.75;;;;;;;17.59;49.57;99519.59;5361151;26;20008;-81
2024/04/20 10:02:57;;;;;;;4.30;4.00;;;;;;;20.85;41.80;99506.94;5368273;26;20016;-81
2024/04/20 10:05:23;;;;;;;4.78;4.53;;;;;;;23.81;35.07;99514.59;5364472;26;20044;-83
2024/04/20 10:07:49;;;;;;;4.82;4.53;;;;;;;25.45;31.34;99519.06;5380584;26;20008;-79
2024/04/20 10:10:16;;;;;;;5.38;5.07;;;;;;;27.64;26.69;99512.47;5378321;26;20008;-83
2024/04/20 10:12:43;;;;;;;1.25;0.60;;;;;;;27.49;25.08;99520.63;5375326;26;20023;-82
2024/04/20 10:15:09;;;;;;;1.70;0.80;;;;;;;24.67;26.53;99519.47;5360121;26;20416;-80
2024/04/20 10:17:35;;;;;;;0.60;0.60;;;;;;;25.00;27.83;99515.81;5316618;26;20015;-79
2024/04/20 10:20:01;;;;;;;5.40;5.10;;;;;;;24.97;27.98;99522.56;5349790;26;20008;-82
2024/04/20 10:22:30;;;;;;;6.07;5.75;;;;;;;25.41;26.76;99532.34;5288478;26;20447;-81
2024/04/20 10:25:02;;;;;;;3.08;0.90;;;;;;;25.47;26.25;99536.75;5380003;26;20019;-82
2024/04/20 10:27:32;;;;;;;2.92;1.00;;;;;;;24.36;27.33;99548.06;5379752;26;20434;-81
2024/04/20 10:30:21;;;;;;;0.88;0.70;;;;;;;21.78;30.29;99552.22;5378050;26;20008;-77
2024/04/20 10:32:49;;;;;;;1.23;0.73;;;;;;;20.47;34.00;99544.94;5362816;26;20020;-78
2024/04/20 10:35:21;;;;;;;1.52;0.80;;;;;;;19.98;35.75;99556.59;5368904;26;20019;-78
2024/04/20 10:38:04;;;;;;;1.80;0.90;;;;;;;18.93;36.48;99560.13;5365000;26;20008;-79
2024/04/20 10:40:34;;;;;;;4.82;4.50;;;;;;;19.60;37.29;99563.91;5363384;26;20467;-82
2024/04/20 10:43:26;;;;;;;2.65;2.45;;;;;;;20.70;34.58;99558.59;5362778;26;20009;-78
2024/04/20 10:46:03;;;;;;;3.58;1.17;;;;;;;19.85;34.19;99578.25;5357236;26;20005;-79
2024/04/20 10:48:29;;;;;;;1.00;0.73;;;;;;;18.90;33.95;99590.97;5364321;26;20054;-77
2024/04/20 10:51:00;;;;;;;1.23;0.88;;;;;;;18.35;36.06;99573.50;5367388;26;20011;-78
2024/04/20 10:53:28;;;;;;;4.10;0.80;;;;;;;18.33;37.70;99570.19;5282706;26;20089;-76
2024/04/20 10:55:59;;;;;;;1.60;0.82;;;;;;;18.20;36.80;99590.88;5363510;26;20004;-75
2024/04/20 10:58:26;;;;;;;4.10;3.50;;;;;;;17.83;38.49;99584.28;5363115;26;20008;-74
2024/04/20 11:00:58;;;;;;;3.00;2.80;;;;;;;19.65;35.03;99579.47;5363602;26;20009;-83
2024/04/20 11:03:24;;;;;;;4.00;3.28;;;;;;;21.05;32.50;99589.38;5365540;26;20015;-78
2024/04/20 11:05:52;;;;;;;3.17;2.88;;;;;;;22.17;30.64;99611.06;5338508;26;20008;-76
2024/04/20 11:08:18;;;;;;;2.65;2.05;;;;;;;22.23;29.75;99599.34;5357427;26;20004;-78
2024/04/20 11:11:00;;;;;;;2.10;2.00;;;;;;;22.27;30.23;99578.84;5313554;26;20005;-72
2024/04/20 11:13:26;;;;;;;1.90;1.80;;;;;;;21.29;28.28;99584.91;5344472;26;20048;-76
2024/04/20 11:15:53;;;;;;;4.00;1.67;;;;;;;19.99;31.02;99609.47;5250002;26;20344;-76
2024/04/20 11:18:19;;;;;;;1.85;1.10;;;;;;;20.45;30.83;99606.41;5301973;26;20056;-75
2024/04/20 11:20:46;;;;;;;2.78;1.10;;;;;;;19.98;30.95;99618.59;5333429;26;20016;-70
2024/04/20 11:23:12;;;;;;;1.17;1.08;;;;;;;19.28;33.29;99599.94;5309590;26;20016;-77
2024/04/20 11:25:38;;;;;;;3.17;0.88;;;;;;;18.43;34.31;99599.38;5314609;26;20004;-78
2024/04/20 11:28:04;;;;;;;2.42;1.25;;;;;;;17.39;35.35;99599.25;5343326;26;19997;-75
2024/04/20 11:30:37;;;;;;;3.40;1.17;;;;;;;17.08;37.13;99594.38;5344446;26;20080;-74
2024/04/20 11:33:03;;;;;;;2.85;1.00;;;;;;;16.77;38.76;99604.75;5311033;27;20020;-74
2024/04/20 11:35:34;;;;;;;0.82;0.80;;;;;;;16.49;39.74;99601.28;5293739;26;20004;-72